createdAt,value
2022-11-21T00:03:14.126Z,64.81
2022-11-21T00:07:14.670Z,64.46
2022-11-21T00:11:15.291Z,64.55
2022-11-21T00:15:18.024Z,64.51
2022-11-21T00:19:18.286Z,64.88
2022-11-21T00:23:18.402Z,65.17
2022-11-21T00:27:18.505Z,65.88
2022-11-21T00:31:26.700Z,64.08
2022-11-21T00:35:27.168Z,63.96
2022-11-21T00:39:27.236Z,63.25
2022-11-21T00:43:27.418Z,64.05
2022-11-21T00:47:30.235Z,63.76
2022-11-21T00:51:30.391Z,63.57
2022-11-21T00:55:30.673Z,62.80
2022-11-21T00:59:31.218Z,63.51
2022-11-21T01:03:36.769Z,63.69
2022-11-21T01:07:36.998Z,63.55
2022-11-21T01:11:37.308Z,63.55
2022-11-21T01:15:37.680Z,63.32
2022-11-21T01:19:40.664Z,62.48
2022-11-21T01:23:41.230Z,63.02
2022-11-21T01:27:41.359Z,62.29
2022-11-21T01:31:41.497Z,62.78
2022-11-21T01:35:44.254Z,62.53
2022-11-21T01:39:44.384Z,62.98
2022-11-21T01:43:44.809Z,62.48
2022-11-21T01:47:44.926Z,62.23
2022-11-21T01:51:56.734Z,62.59
2022-11-21T01:55:57.373Z,62.94
2022-11-21T02:00:05.042Z,62.84
2022-11-21T02:04:09.550Z,63.26
2022-11-21T02:08:20.655Z,62.24
2022-11-21T02:12:29.128Z,62.38
2022-11-21T02:16:30.918Z,62.84
2022-11-21T02:20:33.263Z,63.12
2022-11-21T02:24:46.369Z,62.32
2022-11-21T02:28:49.181Z,62.84
2022-11-21T02:32:49.708Z,63.16
2022-11-21T02:36:51.026Z,62.62
2022-11-21T02:41:02.057Z,62.88
2022-11-21T02:45:17.298Z,62.70
2022-11-21T02:49:22.428Z,63.21
2022-11-21T02:53:22.908Z,63.68
2022-11-21T02:57:23.288Z,63.06
2022-11-21T03:01:26.336Z,62.93
2022-11-21T03:05:26.716Z,62.95
2022-11-21T03:09:27.191Z,62.89
2022-11-21T03:13:27.300Z,63.87
2022-11-21T03:17:31.492Z,62.93
2022-11-21T03:21:31.852Z,63.21
2022-11-21T03:25:32.233Z,62.39
2022-11-21T03:29:32.377Z,62.95
2022-11-21T03:33:35.152Z,62.25
2022-11-21T03:37:35.253Z,61.46
2022-11-21T03:41:35.493Z,62.17
2022-11-21T03:45:35.772Z,62.72
2022-11-21T03:49:38.532Z,62.80
2022-11-21T03:53:38.634Z,62.87
2022-11-21T03:57:38.820Z,63.25
2022-11-21T04:01:39.220Z,62.04
2022-11-21T04:05:42.043Z,61.23
2022-11-21T04:09:42.179Z,61.39
2022-11-21T04:13:42.551Z,62.83
2022-11-21T04:17:42.611Z,62.30
2022-11-21T04:21:45.378Z,62.38
2022-11-21T04:25:45.497Z,62.59
2022-11-21T04:29:45.721Z,61.71
2022-11-21T04:33:46.128Z,62.89
2022-11-21T04:37:48.848Z,61.90
2022-11-21T04:41:49.006Z,61.93
2022-11-21T04:45:49.168Z,62.04
2022-11-21T04:49:49.276Z,62.37
2022-11-21T04:53:52.193Z,62.01
2022-11-21T04:57:53.360Z,62.35
2022-11-21T05:01:53.628Z,63.15
2022-11-21T05:05:53.728Z,63.05
2022-11-21T05:09:56.671Z,62.76
2022-11-21T05:13:56.790Z,62.75
2022-11-21T05:17:56.898Z,62.36
2022-11-21T05:21:57.220Z,62.44
2022-11-21T05:25:59.904Z,62.79
2022-11-21T05:30:00.002Z,63.23
2022-11-21T05:34:00.381Z,63.05
2022-11-21T05:38:01.223Z,62.44
2022-11-21T05:42:03.951Z,62.17
2022-11-21T05:46:04.114Z,63.09
2022-11-21T05:50:04.364Z,63.13
2022-11-21T05:54:04.821Z,63.76
2022-11-21T05:58:09.108Z,63.40
2022-11-21T06:02:21.658Z,62.86
2022-11-21T06:06:24.839Z,62.90
2022-11-21T06:10:25.299Z,63.72
2022-11-21T06:14:28.386Z,62.00
2022-11-21T06:18:29.904Z,62.10
2022-11-21T06:22:30.273Z,61.48
2022-11-21T06:26:31.260Z,61.78
2022-11-21T06:30:34.134Z,61.26
2022-11-21T06:34:34.320Z,61.70
2022-11-21T06:38:34.647Z,60.08
2022-11-21T06:42:35.978Z,59.93
2022-11-21T06:46:38.700Z,61.12
2022-11-21T06:50:38.862Z,59.97
2022-11-21T06:54:39.038Z,60.69
2022-11-21T06:58:40.153Z,60.85
2022-11-21T07:02:42.834Z,61.38
2022-11-21T07:06:42.944Z,60.11
2022-11-21T07:11:03.313Z,59.94
2022-11-21T07:15:04.322Z,60.65
2022-11-21T07:19:07.053Z,60.18
2022-11-21T07:23:07.896Z,62.12
2022-11-21T07:27:07.991Z,60.73
2022-11-21T07:31:13.226Z,59.85
2022-11-21T07:35:16.835Z,60.24
2022-11-21T07:39:16.936Z,60.66
2022-11-21T07:43:17.047Z,60.48
2022-11-21T07:47:17.262Z,59.79
2022-11-21T07:51:19.989Z,60.33
2022-11-21T07:55:20.332Z,59.98
2022-11-21T07:59:21.528Z,60.45
2022-11-21T08:03:22.741Z,60.21
2022-11-21T08:07:28.355Z,60.91
2022-11-21T08:11:28.803Z,59.38
2022-11-21T08:15:28.906Z,58.90
2022-11-21T08:19:29.468Z,57.90
2022-11-21T08:23:32.758Z,58.42
2022-11-21T08:27:34.275Z,57.49
2022-11-21T08:31:34.429Z,57.30
2022-11-21T08:35:35.034Z,57.60
2022-11-21T08:39:37.931Z,57.93
2022-11-21T08:43:38.124Z,57.52
2022-11-21T08:47:38.434Z,57.39
2022-11-21T08:51:39.804Z,56.77
2022-11-21T08:55:42.565Z,56.85
2022-11-21T08:59:42.701Z,58.37
2022-11-21T09:03:42.813Z,56.77
2022-11-21T09:07:43.224Z,55.50
2022-11-21T09:11:46.097Z,55.89
2022-11-21T09:16:01.741Z,55.81
2022-11-21T09:20:02.192Z,56.51
2022-11-21T09:24:03.379Z,57.38
2022-11-21T09:28:09.195Z,56.30
2022-11-21T09:32:12.939Z,56.73
2022-11-21T09:36:13.607Z,56.70
2022-11-21T09:40:20.010Z,56.72
2022-11-21T09:45:01.577Z,56.07
2022-11-21T09:49:10.195Z,55.89
2022-11-21T09:53:17.923Z,55.53
2022-11-21T09:57:22.985Z,54.98
2022-11-21T10:01:25.951Z,55.59
2022-11-21T10:05:39.013Z,55.74
2022-11-21T10:09:57.836Z,54.29
2022-11-21T10:14:18.348Z,52.37
2022-11-21T10:18:55.040Z,51.69
2022-11-21T10:23:22.267Z,49.05
2022-11-21T10:27:34.573Z,49.33
2022-11-21T10:31:43.027Z,49.87
2022-11-21T10:35:51.415Z,51.01
2022-11-21T10:39:55.985Z,51.94
2022-11-21T10:44:21.170Z,51.99
2022-11-21T10:48:21.646Z,52.68
2022-11-21T10:52:30.136Z,51.11
2022-11-21T10:56:32.629Z,50.92
2022-11-21T11:00:45.414Z,50.89
2022-11-21T11:05:27.219Z,51.59
2022-11-21T11:09:39.883Z,50.78
2022-11-21T11:19:01.706Z,50.35
2022-11-21T11:23:50.591Z,49.54
2022-11-21T11:29:00.303Z,49.08
2022-11-21T11:33:56.432Z,48.66
2022-11-21T11:43:50.462Z,51.44
2022-11-21T11:47:57.618Z,50.74
2022-11-21T11:52:07.705Z,50.93
2022-11-21T11:56:18.521Z,52.08
2022-11-21T12:00:38.198Z,53.55
2022-11-21T12:04:48.649Z,54.31
2022-11-21T12:08:57.841Z,55.51
2022-11-21T12:13:08.144Z,55.87
2022-11-21T12:17:22.367Z,55.07
2022-11-21T12:28:13.589Z,55.77
2022-11-21T12:33:08.244Z,55.39
2022-11-21T12:37:53.319Z,55.45
2022-11-21T12:42:22.062Z,56.02
2022-11-21T12:46:42.201Z,52.98
2022-11-21T12:51:09.065Z,49.70
2022-11-21T12:55:35.570Z,46.70
2022-11-21T12:59:51.911Z,47.28
2022-11-21T13:04:05.973Z,46.87
2022-11-21T13:08:21.255Z,46.83
2022-11-21T13:12:37.451Z,47.79
2022-11-21T13:16:48.236Z,48.75
2022-11-21T13:20:55.080Z,46.14
2022-11-21T13:25:01.733Z,44.35
2022-11-21T13:29:13.771Z,47.13
2022-11-21T13:33:51.196Z,46.53
2022-11-21T13:38:10.088Z,44.89
2022-11-21T13:42:32.730Z,43.69
2022-11-21T13:47:01.936Z,43.85
2022-11-21T13:51:29.767Z,44.17
2022-11-21T13:56:01.215Z,45.01
2022-11-21T14:00:29.884Z,46.01
2022-11-21T14:05:11.694Z,44.48
2022-11-21T14:09:31.673Z,43.66
2022-11-21T14:13:40.023Z,42.60
2022-11-21T14:17:48.109Z,43.38
2022-11-21T14:21:50.439Z,44.08
2022-11-21T14:25:56.845Z,44.19
2022-11-21T14:29:59.963Z,45.06
2022-11-21T14:34:04.387Z,45.20
2022-11-21T14:38:18.088Z,44.46
2022-11-21T14:42:26.223Z,44.97
2022-11-21T14:46:35.382Z,45.69
2022-11-21T14:50:41.573Z,44.42
2022-11-21T14:55:22.437Z,44.23
2022-11-21T14:59:27.101Z,45.31
2022-11-21T15:03:41.542Z,47.21
2022-11-21T15:08:24.374Z,48.39
2022-11-21T15:12:34.945Z,49.27
2022-11-21T15:16:38.400Z,50.87
2022-11-21T15:20:53.431Z,51.60
2022-11-21T15:25:08.487Z,52.10
2022-11-21T15:29:25.940Z,53.95
2022-11-21T15:33:28.835Z,54.99
2022-11-21T15:37:34.863Z,55.67
2022-11-21T15:41:40.533Z,55.90
2022-11-21T15:45:44.681Z,55.80
2022-11-21T15:49:45.192Z,56.42
2022-11-21T15:54:05.921Z,57.55
2022-11-21T15:58:16.333Z,58.05
2022-11-21T16:02:24.453Z,58.54
2022-11-21T16:06:29.723Z,58.26
2022-11-21T16:10:37.686Z,58.05
2022-11-21T16:14:43.835Z,57.09
2022-11-21T16:18:44.472Z,58.20
2022-11-21T16:22:48.238Z,58.11
2022-11-21T16:26:55.567Z,57.66
2022-11-21T16:30:56.725Z,57.74
2022-11-21T16:34:59.357Z,57.55
2022-11-21T16:39:07.776Z,57.47
2022-11-21T16:43:15.217Z,57.75
2022-11-21T16:47:17.156Z,58.07
2022-11-21T16:51:20.922Z,58.71
2022-11-21T16:55:21.110Z,58.21
2022-11-21T16:59:24.080Z,57.95
2022-11-21T17:03:24.346Z,59.24
2022-11-21T17:07:24.597Z,60.50
2022-11-21T17:11:28.342Z,59.78
2022-11-21T17:15:31.060Z,58.68
2022-11-21T17:19:31.250Z,58.92
2022-11-21T17:23:34.220Z,58.16
2022-11-21T17:27:34.786Z,58.56
2022-11-21T17:31:37.521Z,58.30
2022-11-21T17:35:38.812Z,58.51
2022-11-21T17:39:39.212Z,58.64
2022-11-21T17:43:39.389Z,59.24
2022-11-21T17:47:42.344Z,60.34
2022-11-21T17:51:43.672Z,60.57
2022-11-21T17:55:43.758Z,60.71
2022-11-21T17:59:45.184Z,60.69
2022-11-21T18:03:48.189Z,62.36
2022-11-21T18:07:48.908Z,61.66
2022-11-21T18:11:49.084Z,61.05
2022-11-21T18:15:51.312Z,61.09
2022-11-21T18:19:54.162Z,60.12
2022-11-21T18:23:56.791Z,60.12
2022-11-21T18:27:56.949Z,59.94
2022-11-21T18:31:57.114Z,59.61
2022-11-21T18:35:59.826Z,60.13
2022-11-21T18:39:59.892Z,59.54
2022-11-21T18:44:02.478Z,60.48
2022-11-21T18:48:02.696Z,59.83
2022-11-21T18:52:05.547Z,59.94
2022-11-21T18:56:10.153Z,60.52
2022-11-21T19:00:12.961Z,60.67
2022-11-21T19:04:13.133Z,60.87
2022-11-21T19:08:16.819Z,60.76
2022-11-21T19:12:17.718Z,60.78
2022-11-21T19:16:20.766Z,61.18
2022-11-21T19:20:21.033Z,61.12
2022-11-21T19:24:23.818Z,61.12
2022-11-21T19:28:25.632Z,60.96
2022-11-21T19:32:25.735Z,61.71
2022-11-21T19:36:27.161Z,61.30
2022-11-21T19:40:51.425Z,61.08
2022-11-21T19:44:51.627Z,60.96
2022-11-21T19:48:53.650Z,60.58
2022-11-21T19:53:27.554Z,60.44
2022-11-21T19:58:30.794Z,60.54
2022-11-21T20:02:49.280Z,61.03
2022-11-21T20:07:50.763Z,61.54
2022-11-21T20:12:38.034Z,61.73
2022-11-21T20:18:01.877Z,62.93
2022-11-21T20:22:53.478Z,62.63
2022-11-21T20:27:18.897Z,61.83
2022-11-21T20:32:49.212Z,61.88
2022-11-21T20:37:52.417Z,61.32
2022-11-21T20:42:37.997Z,61.33
2022-11-21T20:47:47.029Z,61.01
2022-11-21T20:58:15.584Z,61.06
2022-11-21T21:03:20.148Z,60.87
2022-11-21T21:07:53.341Z,61.23
2022-11-21T21:12:31.606Z,61.27
2022-11-21T21:17:11.986Z,61.69
2022-11-21T21:31:46.774Z,61.93
2022-11-21T21:36:25.644Z,62.39
2022-11-21T21:40:54.017Z,62.11
2022-11-21T21:46:10.616Z,62.89
2022-11-21T21:50:52.549Z,61.86
2022-11-21T21:55:42.006Z,61.78
2022-11-21T22:00:08.145Z,61.84
2022-11-21T22:04:45.949Z,61.66
2022-11-21T22:09:04.209Z,61.01
2022-11-21T22:13:07.860Z,60.72
2022-11-21T22:17:08.272Z,61.34
2022-11-21T22:21:17.274Z,60.88
2022-11-21T22:25:20.029Z,61.87
2022-11-21T22:29:20.465Z,60.82
2022-11-21T22:33:20.583Z,60.91
2022-11-21T22:37:21.006Z,60.69
2022-11-21T22:41:27.042Z,60.38
2022-11-21T22:45:27.223Z,60.17
2022-11-21T22:49:27.393Z,59.95
2022-11-21T22:53:28.419Z,59.84
2022-11-21T22:57:31.198Z,59.86
2022-11-21T23:01:31.432Z,60.05
2022-11-21T23:05:31.552Z,60.27
2022-11-21T23:09:31.839Z,60.10
2022-11-21T23:13:35.233Z,60.23
2022-11-21T23:17:35.374Z,60.11
2022-11-21T23:21:35.568Z,60.20
2022-11-21T23:25:35.754Z,59.64
2022-11-21T23:29:38.506Z,59.88
2022-11-21T23:33:38.816Z,60.04
2022-11-21T23:37:38.973Z,59.95
2022-11-21T23:41:39.464Z,60.05
2022-11-21T23:45:42.352Z,59.54
2022-11-21T23:49:46.044Z,59.49
2022-11-21T23:53:50.158Z,59.28
2022-11-21T23:57:51.142Z,59.20
